sensor_id;sensor_type;location;lat;lon;timestamp;P1;durP1;ratioP1;P2;durP2;ratioP2
4355;SDS011;64374;51.482;7.408;2023-05-07T00:01:23;5.97;;;4.93;;
4355;SDS011;64374;51.482;7.408;2023-05-07T00:03:52;8.90;;;6.33;;
4355;SDS011;64374;51.482;7.408;2023-05-07T00:06:21;11.47;;;6.47;;
4355;SDS011;64374;51.482;7.408;2023-05-07T00:08:51;7.83;;;5.97;;
4355;SDS011;64374;51.482;7.408;2023-05-07T00:11:19;5.70;;;5.13;;
4355;SDS011;64374;51.482;7.408;2023-05-07T00:13:48;5.70;;;5.07;;
4355;SDS011;64374;51.482;7.408;2023-05-07T00:16:16;6.10;;;5.17;;
4355;SDS011;64374;51.482;7.408;2023-05-07T00:18:48;9.03;;;5.53;;
4355;SDS011;64374;51.482;7.408;2023-05-07T00:21:17;7.07;;;6.10;;
4355;SDS011;64374;51.482;7.408;2023-05-07T00:23:45;8.53;;;4.90;;
4355;SDS011;64374;51.482;7.408;2023-05-07T00:26:14;6.23;;;4.63;;
4355;SDS011;64374;51.482;7.408;2023-05-07T00:28:43;5.00;;;4.50;;
4355;SDS011;64374;51.482;7.408;2023-05-07T00:31:11;5.70;;;5.20;;
4355;SDS011;64374;51.482;7.408;2023-05-07T00:33:39;7.10;;;5.40;;
4355;SDS011;64374;51.482;7.408;2023-05-07T00:36:09;6.57;;;5.53;;
4355;SDS011;64374;51.482;7.408;2023-05-07T00:38:38;9.93;;;5.60;;
4355;SDS011;64374;51.482;7.408;2023-05-07T00:41:06;5.73;;;5.10;;
4355;SDS011;64374;51.482;7.408;2023-05-07T00:43:36;6.07;;;5.47;;
4355;SDS011;64374;51.482;7.408;2023-05-07T00:46:04;7.90;;;5.80;;
4355;SDS011;64374;51.482;7.408;2023-05-07T00:48:34;9.30;;;6.30;;
4355;SDS011;64374;51.482;7.408;2023-05-07T00:51:03;5.47;;;5.07;;
4355;SDS011;64374;51.482;7.408;2023-05-07T00:53:33;6.33;;;5.13;;
4355;SDS011;64374;51.482;7.408;2023-05-07T00:56:03;7.40;;;5.80;;
4355;SDS011;64374;51.482;7.408;2023-05-07T00:58:35;5.63;;;5.13;;
4355;SDS011;64374;51.482;7.408;2023-05-07T01:01:03;7.30;;;6.03;;
4355;SDS011;64374;51.482;7.408;2023-05-07T01:03:32;9.77;;;6.33;;
4355;SDS011;64374;51.482;7.408;2023-05-07T01:06:02;8.87;;;5.93;;
4355;SDS011;64374;51.482;7.408;2023-05-07T01:08:33;7.73;;;6.30;;
4355;SDS011;64374;51.482;7.408;2023-05-07T01:11:03;6.30;;;5.70;;
4355;SDS011;64374;51.482;7.408;2023-05-07T01:13:31;15.20;;;6.90;;
4355;SDS011;64374;51.482;7.408;2023-05-07T01:16:01;6.90;;;6.07;;
4355;SDS011;64374;51.482;7.408;2023-05-07T01:18:31;8.10;;;5.30;;
4355;SDS011;64374;51.482;7.408;2023-05-07T01:21:00;7.37;;;5.50;;
4355;SDS011;64374;51.482;7.408;2023-05-07T01:23:33;7.83;;;6.00;;
4355;SDS011;64374;51.482;7.408;2023-05-07T01:26:04;6.20;;;5.50;;
4355;SDS011;64374;51.482;7.408;2023-05-07T01:28:34;8.20;;;5.60;;
4355;SDS011;64374;51.482;7.408;2023-05-07T01:31:03;7.10;;;6.27;;
4355;SDS011;64374;51.482;7.408;2023-05-07T01:33:34;9.17;;;6.10;;
4355;SDS011;64374;51.482;7.408;2023-05-07T01:36:04;7.40;;;5.90;;
4355;SDS011;64374;51.482;7.408;2023-05-07T01:38:37;5.70;;;4.67;;
4355;SDS011;64374;51.482;7.408;2023-05-07T01:41:07;7.10;;;6.20;;
4355;SDS011;64374;51.482;7.408;2023-05-07T01:43:35;5.80;;;5.03;;
4355;SDS011;64374;51.482;7.408;2023-05-07T01:46:04;7.20;;;6.50;;
4355;SDS011;64374;51.482;7.408;2023-05-07T01:48:33;6.60;;;5.87;;
4355;SDS011;64374;51.482;7.408;2023-05-07T01:51:03;7.57;;;6.33;;
4355;SDS011;64374;51.482;7.408;2023-05-07T01:53:35;7.40;;;6.67;;
4355;SDS011;64374;51.482;7.408;2023-05-07T01:56:05;7.30;;;6.60;;
4355;SDS011;64374;51.482;7.408;2023-05-07T01:58:36;6.60;;;5.90;;
4355;SDS011;64374;51.482;7.408;2023-05-07T02:01:06;7.37;;;5.57;;
4355;SDS011;64374;51.482;7.408;2023-05-07T02:03:37;7.80;;;6.30;;
4355;SDS011;64374;51.482;7.408;2023-05-07T02:06:11;7.70;;;5.73;;
4355;SDS011;64374;51.482;7.408;2023-05-07T02:08:44;7.43;;;6.17;;
4355;SDS011;64374;51.482;7.408;2023-05-07T02:11:14;7.93;;;6.27;;
4355;SDS011;64374;51.482;7.408;2023-05-07T02:13:43;7.73;;;6.07;;
4355;SDS011;64374;51.482;7.408;2023-05-07T02:16:13;7.77;;;5.83;;
4355;SDS011;64374;51.482;7.408;2023-05-07T02:18:42;8.40;;;5.90;;
4355;SDS011;64374;51.482;7.408;2023-05-07T02:21:10;10.70;;;6.23;;
4355;SDS011;64374;51.482;7.408;2023-05-07T02:23:38;8.10;;;6.50;;
4355;SDS011;64374;51.482;7.408;2023-05-07T02:26:11;7.43;;;6.57;;
4355;SDS011;64374;51.482;7.408;2023-05-07T02:28:39;11.23;;;7.33;;
4355;SDS011;64374;51.482;7.408;2023-05-07T02:31:07;8.70;;;5.57;;
4355;SDS011;64374;51.482;7.408;2023-05-07T02:33:38;6.60;;;5.63;;
4355;SDS011;64374;51.482;7.408;2023-05-07T02:36:09;6.33;;;5.20;;
4355;SDS011;64374;51.482;7.408;2023-05-07T02:38:50;6.30;;;5.27;;
4355;SDS011;64374;51.482;7.408;2023-05-07T02:41:20;5.80;;;5.27;;
4355;SDS011;64374;51.482;7.408;2023-05-07T02:43:49;6.93;;;6.23;;
4355;SDS011;64374;51.482;7.408;2023-05-07T02:46:17;8.40;;;5.83;;
4355;SDS011;64374;51.482;7.408;2023-05-07T02:48:55;7.20;;;6.10;;
4355;SDS011;64374;51.482;7.408;2023-05-07T02:51:25;9.50;;;6.60;;
4355;SDS011;64374;51.482;7.408;2023-05-07T02:53:56;7.67;;;6.40;;
4355;SDS011;64374;51.482;7.408;2023-05-07T02:56:47;8.67;;;7.07;;
4355;SDS011;64374;51.482;7.408;2023-05-07T02:59:15;7.67;;;6.00;;
4355;SDS011;64374;51.482;7.408;2023-05-07T03:01:43;6.40;;;5.80;;
4355;SDS011;64374;51.482;7.408;2023-05-07T03:04:16;8.77;;;7.10;;
4355;SDS011;64374;51.482;7.408;2023-05-07T03:06:44;7.20;;;6.50;;
4355;SDS011;64374;51.482;7.408;2023-05-07T03:09:13;10.93;;;6.97;;
4355;SDS011;64374;51.482;7.408;2023-05-07T03:11:41;7.60;;;6.90;;
4355;SDS011;64374;51.482;7.408;2023-05-07T03:14:11;13.23;;;7.80;;
4355;SDS011;64374;51.482;7.408;2023-05-07T03:16:42;11.90;;;6.90;;
4355;SDS011;64374;51.482;7.408;2023-05-07T03:19:12;7.17;;;6.47;;
4355;SDS011;64374;51.482;7.408;2023-05-07T03:21:40;7.77;;;6.70;;
4355;SDS011;64374;51.482;7.408;2023-05-07T03:24:09;10.37;;;7.60;;
4355;SDS011;64374;51.482;7.408;2023-05-07T03:26:37;8.50;;;6.33;;
4355;SDS011;64374;51.482;7.408;2023-05-07T03:29:06;9.63;;;8.27;;
4355;SDS011;64374;51.482;7.408;2023-05-07T03:31:36;12.23;;;9.20;;
4355;SDS011;64374;51.482;7.408;2023-05-07T03:34:04;8.93;;;7.80;;
4355;SDS011;64374;51.482;7.408;2023-05-07T03:36:33;10.83;;;9.13;;
4355;SDS011;64374;51.482;7.408;2023-05-07T03:39:03;10.83;;;9.73;;
4355;SDS011;64374;51.482;7.408;2023-05-07T03:41:37;8.67;;;7.87;;
4355;SDS011;64374;51.482;7.408;2023-05-07T03:44:06;11.37;;;9.20;;
4355;SDS011;64374;51.482;7.408;2023-05-07T03:46:40;9.97;;;8.97;;
4355;SDS011;64374;51.482;7.408;2023-05-07T03:49:12;8.90;;;8.00;;
4355;SDS011;64374;51.482;7.408;2023-05-07T03:51:41;9.77;;;8.70;;
4355;SDS011;64374;51.482;7.408;2023-05-07T03:54:10;9.03;;;8.13;;
4355;SDS011;64374;51.482;7.408;2023-05-07T03:56:42;10.53;;;8.60;;
4355;SDS011;64374;51.482;7.408;2023-05-07T03:59:11;10.23;;;8.00;;
4355;SDS011;64374;51.482;7.408;2023-05-07T04:01:43;10.13;;;7.80;;
4355;SDS011;64374;51.482;7.408;2023-05-07T04:04:16;9.00;;;7.40;;
4355;SDS011;64374;51.482;7.408;2023-05-07T04:06:45;8.33;;;7.40;;
4355;SDS011;64374;51.482;7.408;2023-05-07T04:09:13;8.10;;;7.30;;
4355;SDS011;64374;51.482;7.408;2023-05-07T04:11:44;8.20;;;7.40;;
4355;SDS011;64374;51.482;7.408;2023-05-07T04:14:14;8.87;;;7.97;;
4355;SDS011;64374;51.482;7.408;2023-05-07T04:16:43;8.50;;;7.63;;
4355;SDS011;64374;51.482;7.408;2023-05-07T04:19:13;8.10;;;7.30;;
4355;SDS011;64374;51.482;7.408;2023-05-07T04:21:45;8.37;;;7.57;;
4355;SDS011;64374;51.482;7.408;2023-05-07T04:24:14;9.20;;;8.37;;
4355;SDS011;64374;51.482;7.408;2023-05-07T04:26:43;8.00;;;7.20;;
4355;SDS011;64374;51.482;7.408;2023-05-07T04:29:14;9.80;;;6.87;;
4355;SDS011;64374;51.482;7.408;2023-05-07T04:31:44;9.97;;;7.17;;
4355;SDS011;64374;51.482;7.408;2023-05-07T04:34:13;11.47;;;8.00;;
4355;SDS011;64374;51.482;7.408;2023-05-07T04:36:41;8.33;;;7.43;;
4355;SDS011;64374;51.482;7.408;2023-05-07T04:39:12;12.63;;;7.33;;
4355;SDS011;64374;51.482;7.408;2023-05-07T04:41:43;11.63;;;8.17;;
4355;SDS011;64374;51.482;7.408;2023-05-07T04:44:12;10.90;;;8.10;;
4355;SDS011;64374;51.482;7.408;2023-05-07T04:46:41;7.50;;;6.13;;
4355;SDS011;64374;51.482;7.408;2023-05-07T04:49:11;8.00;;;7.30;;
4355;SDS011;64374;51.482;7.408;2023-05-07T04:51:40;9.83;;;7.10;;
4355;SDS011;64374;51.482;7.408;2023-05-07T04:54:12;8.00;;;7.13;;
4355;SDS011;64374;51.482;7.408;2023-05-07T04:56:41;8.30;;;7.50;;
4355;SDS011;64374;51.482;7.408;2023-05-07T04:59:10;14.90;;;7.27;;
4355;SDS011;64374;51.482;7.408;2023-05-07T05:01:39;6.73;;;6.20;;
4355;SDS011;64374;51.482;7.408;2023-05-07T05:04:08;15.27;;;6.30;;
4355;SDS011;64374;51.482;7.408;2023-05-07T05:06:38;8.60;;;7.70;;
4355;SDS011;64374;51.482;7.408;2023-05-07T05:09:12;12.07;;;7.70;;
4355;SDS011;64374;51.482;7.408;2023-05-07T05:11:41;11.97;;;7.80;;
4355;SDS011;64374;51.482;7.408;2023-05-07T05:14:09;7.90;;;7.10;;
4355;SDS011;64374;51.482;7.408;2023-05-07T05:16:37;9.30;;;7.00;;
4355;SDS011;64374;51.482;7.408;2023-05-07T05:19:09;8.67;;;7.13;;
4355;SDS011;64374;51.482;7.408;2023-05-07T05:21:39;8.33;;;6.63;;
4355;SDS011;64374;51.482;7.408;2023-05-07T05:24:09;6.57;;;5.90;;
4355;SDS011;64374;51.482;7.408;2023-05-07T05:26:38;6.93;;;6.33;;
4355;SDS011;64374;51.482;7.408;2023-05-07T05:29:06;7.87;;;7.00;;
4355;SDS011;64374;51.482;7.408;2023-05-07T05:31:41;9.00;;;7.10;;
4355;SDS011;64374;51.482;7.408;2023-05-07T05:34:13;8.57;;;6.80;;
4355;SDS011;64374;51.482;7.408;2023-05-07T05:36:43;10.20;;;6.37;;
4355;SDS011;64374;51.482;7.408;2023-05-07T05:39:13;7.23;;;6.47;;
4355;SDS011;64374;51.482;7.408;2023-05-07T05:41:42;8.30;;;6.30;;
4355;SDS011;64374;51.482;7.408;2023-05-07T05:44:11;6.60;;;5.40;;
4355;SDS011;64374;51.482;7.408;2023-05-07T05:46:41;5.40;;;5.00;;
4355;SDS011;64374;51.482;7.408;2023-05-07T05:49:12;7.33;;;5.53;;
4355;SDS011;64374;51.482;7.408;2023-05-07T05:51:41;6.60;;;6.00;;
4355;SDS011;64374;51.482;7.408;2023-05-07T05:54:11;9.30;;;5.77;;
4355;SDS011;64374;51.482;7.408;2023-05-07T05:56:39;5.70;;;4.70;;
4355;SDS011;64374;51.482;7.408;2023-05-07T05:59:08;6.37;;;4.40;;
4355;SDS011;64374;51.482;7.408;2023-05-07T06:01:38;6.13;;;5.00;;
4355;SDS011;64374;51.482;7.408;2023-05-07T06:04:06;5.00;;;4.50;;
4355;SDS011;64374;51.482;7.408;2023-05-07T06:06:36;5.87;;;4.60;;
4355;SDS011;64374;51.482;7.408;2023-05-07T06:09:04;5.40;;;4.80;;
4355;SDS011;64374;51.482;7.408;2023-05-07T06:11:37;4.73;;;4.37;;
4355;SDS011;64374;51.482;7.408;2023-05-07T06:14:10;5.07;;;4.37;;
4355;SDS011;64374;51.482;7.408;2023-05-07T06:16:39;8.23;;;4.97;;
4355;SDS011;64374;51.482;7.408;2023-05-07T06:19:10;5.20;;;4.27;;
4355;SDS011;64374;51.482;7.408;2023-05-07T06:21:40;6.20;;;5.00;;
4355;SDS011;64374;51.482;7.408;2023-05-07T06:24:09;4.53;;;4.23;;
4355;SDS011;64374;51.482;7.408;2023-05-07T06:26:39;5.27;;;4.77;;
4355;SDS011;64374;51.482;7.408;2023-05-07T06:29:07;10.53;;;4.50;;
4355;SDS011;64374;51.482;7.408;2023-05-07T06:31:39;3.93;;;3.63;;
4355;SDS011;64374;51.482;7.408;2023-05-07T06:34:10;4.67;;;3.73;;
4355;SDS011;64374;51.482;7.408;2023-05-07T06:36:42;4.03;;;3.37;;
4355;SDS011;64374;51.482;7.408;2023-05-07T06:39:20;5.30;;;3.60;;
4355;SDS011;64374;51.482;7.408;2023-05-07T06:41:48;3.80;;;3.40;;
4355;SDS011;64374;51.482;7.408;2023-05-07T06:44:23;4.70;;;2.80;;
4355;SDS011;64374;51.482;7.408;2023-05-07T06:47:04;4.20;;;3.80;;
4355;SDS011;64374;51.482;7.408;2023-05-07T06:49:35;4.47;;;3.90;;
4355;SDS011;64374;51.482;7.408;2023-05-07T06:52:05;4.50;;;3.60;;
4355;SDS011;64374;51.482;7.408;2023-05-07T06:54:33;5.00;;;4.17;;
4355;SDS011;64374;51.482;7.408;2023-05-07T06:57:04;4.33;;;3.70;;
4355;SDS011;64374;51.482;7.408;2023-05-07T06:59:34;4.50;;;3.40;;
4355;SDS011;64374;51.482;7.408;2023-05-07T07:02:02;3.30;;;2.90;;
4355;SDS011;64374;51.482;7.408;2023-05-07T07:04:31;3.47;;;3.13;;
4355;SDS011;64374;51.482;7.408;2023-05-07T07:07:05;3.43;;;3.13;;
4355;SDS011;64374;51.482;7.408;2023-05-07T07:09:34;3.00;;;2.70;;
4355;SDS011;64374;51.482;7.408;2023-05-07T07:12:05;2.73;;;2.53;;
4355;SDS011;64374;51.482;7.408;2023-05-07T07:14:35;5.40;;;3.40;;
4355;SDS011;64374;51.482;7.408;2023-05-07T07:17:05;4.30;;;3.40;;
4355;SDS011;64374;51.482;7.408;2023-05-07T07:19:34;3.90;;;3.00;;
4355;SDS011;64374;51.482;7.408;2023-05-07T07:22:03;3.43;;;3.10;;
4355;SDS011;64374;51.482;7.408;2023-05-07T07:24:33;7.63;;;3.00;;
4355;SDS011;64374;51.482;7.408;2023-05-07T07:27:04;7.73;;;3.20;;
4355;SDS011;64374;51.482;7.408;2023-05-07T07:29:35;3.73;;;2.90;;
4355;SDS011;64374;51.482;7.408;2023-05-07T07:32:03;4.80;;;3.60;;
4355;SDS011;64374;51.482;7.408;2023-05-07T07:34:32;3.00;;;2.70;;
4355;SDS011;64374;51.482;7.408;2023-05-07T07:37:01;6.50;;;3.03;;
4355;SDS011;64374;51.482;7.408;2023-05-07T07:39:34;8.03;;;3.50;;
4355;SDS011;64374;51.482;7.408;2023-05-07T07:42:06;4.80;;;3.83;;
4355;SDS011;64374;51.482;7.408;2023-05-07T07:44:35;4.00;;;3.60;;
4355;SDS011;64374;51.482;7.408;2023-05-07T07:47:06;4.50;;;4.10;;
4355;SDS011;64374;51.482;7.408;2023-05-07T07:49:37;5.70;;;2.90;;
4355;SDS011;64374;51.482;7.408;2023-05-07T07:52:30;3.93;;;3.13;;
4355;SDS011;64374;51.482;7.408;2023-05-07T07:55:01;6.23;;;3.73;;
4355;SDS011;64374;51.482;7.408;2023-05-07T07:57:31;5.83;;;3.13;;
4355;SDS011;64374;51.482;7.408;2023-05-07T08:00:01;6.90;;;3.50;;
4355;SDS011;64374;51.482;7.408;2023-05-07T08:02:42;4.70;;;3.03;;
4355;SDS011;64374;51.482;7.408;2023-05-07T08:05:18;4.20;;;3.80;;
4355;SDS011;64374;51.482;7.408;2023-05-07T08:07:48;5.87;;;4.10;;
4355;SDS011;64374;51.482;7.408;2023-05-07T08:10:26;4.13;;;3.67;;
4355;SDS011;64374;51.482;7.408;2023-05-07T08:13:02;6.97;;;4.60;;
4355;SDS011;64374;51.482;7.408;2023-05-07T08:15:36;5.90;;;4.47;;
4355;SDS011;64374;51.482;7.408;2023-05-07T08:18:05;4.80;;;4.40;;
4355;SDS011;64374;51.482;7.408;2023-05-07T08:20:35;7.13;;;4.10;;
4355;SDS011;64374;51.482;7.408;2023-05-07T08:23:09;9.73;;;4.60;;
4355;SDS011;64374;51.482;7.408;2023-05-07T08:25:43;4.33;;;3.90;;
4355;SDS011;64374;51.482;7.408;2023-05-07T08:28:12;4.27;;;3.87;;
4355;SDS011;64374;51.482;7.408;2023-05-07T08:30:41;5.23;;;4.73;;
4355;SDS011;64374;51.482;7.408;2023-05-07T08:33:10;4.90;;;4.47;;
4355;SDS011;64374;51.482;7.408;2023-05-07T08:35:39;5.40;;;4.47;;
4355;SDS011;64374;51.482;7.408;2023-05-07T08:38:08;6.67;;;4.33;;
4355;SDS011;64374;51.482;7.408;2023-05-07T08:40:37;7.37;;;3.93;;
4355;SDS011;64374;51.482;7.408;2023-05-07T08:43:17;6.07;;;5.47;;
4355;SDS011;64374;51.482;7.408;2023-05-07T08:45:47;6.90;;;5.20;;
4355;SDS011;64374;51.482;7.408;2023-05-07T08:48:25;6.80;;;5.80;;
4355;SDS011;64374;51.482;7.408;2023-05-07T08:51:05;5.87;;;5.27;;
4355;SDS011;64374;51.482;7.408;2023-05-07T08:53:34;5.50;;;5.00;;
4355;SDS011;64374;51.482;7.408;2023-05-07T08:56:28;5.57;;;4.90;;
4355;SDS011;64374;51.482;7.408;2023-05-07T08:58:58;6.57;;;5.90;;
4355;SDS011;64374;51.482;7.408;2023-05-07T09:01:29;7.47;;;4.80;;
4355;SDS011;64374;51.482;7.408;2023-05-07T09:03:57;5.37;;;4.30;;
4355;SDS011;64374;51.482;7.408;2023-05-07T09:06:28;9.90;;;5.87;;
4355;SDS011;64374;51.482;7.408;2023-05-07T09:09:01;9.17;;;6.67;;
4355;SDS011;64374;51.482;7.408;2023-05-07T09:11:32;7.57;;;5.10;;
4355;SDS011;64374;51.482;7.408;2023-05-07T09:14:03;7.07;;;6.40;;
4355;SDS011;64374;51.482;7.408;2023-05-07T09:16:39;8.63;;;7.13;;
4355;SDS011;64374;51.482;7.408;2023-05-07T09:19:08;8.90;;;6.07;;
4355;SDS011;64374;51.482;7.408;2023-05-07T09:21:42;8.43;;;7.40;;
4355;SDS011;64374;51.482;7.408;2023-05-07T09:24:14;7.70;;;6.30;;
4355;SDS011;64374;51.482;7.408;2023-05-07T09:26:44;10.07;;;6.70;;
4355;SDS011;64374;51.482;7.408;2023-05-07T09:29:15;7.53;;;6.50;;
4355;SDS011;64374;51.482;7.408;2023-05-07T09:32:07;11.33;;;6.83;;
4355;SDS011;64374;51.482;7.408;2023-05-07T09:34:36;6.87;;;6.27;;
4355;SDS011;64374;51.482;7.408;2023-05-07T09:37:06;14.40;;;6.97;;
4355;SDS011;64374;51.482;7.408;2023-05-07T09:39:38;12.20;;;8.07;;
4355;SDS011;64374;51.482;7.408;2023-05-07T09:42:09;9.17;;;6.70;;
4355;SDS011;64374;51.482;7.408;2023-05-07T09:44:40;7.43;;;6.27;;
4355;SDS011;64374;51.482;7.408;2023-05-07T09:47:16;6.47;;;5.80;;
4355;SDS011;64374;51.482;7.408;2023-05-07T09:49:50;6.77;;;6.17;;
4355;SDS011;64374;51.482;7.408;2023-05-07T09:52:24;8.50;;;7.70;;
4355;SDS011;64374;51.482;7.408;2023-05-07T09:54:55;12.83;;;7.13;;
4355;SDS011;64374;51.482;7.408;2023-05-07T09:57:28;8.10;;;5.47;;
4355;SDS011;64374;51.482;7.408;2023-05-07T10:00:03;8.27;;;7.47;;
4355;SDS011;64374;51.482;7.408;2023-05-07T10:02:56;8.83;;;7.27;;
4355;SDS011;64374;51.482;7.408;2023-05-07T10:05:40;9.00;;;7.50;;
4355;SDS011;64374;51.482;7.408;2023-05-07T10:08:12;8.30;;;5.90;;
4355;SDS011;64374;51.482;7.408;2023-05-07T10:10:45;7.77;;;6.97;;
4355;SDS011;64374;51.482;7.408;2023-05-07T10:13:19;10.50;;;5.80;;
4355;SDS011;64374;51.482;7.408;2023-05-07T10:15:53;7.53;;;5.50;;
4355;SDS011;64374;51.482;7.408;2023-05-07T10:18:31;6.40;;;5.00;;
4355;SDS011;64374;51.482;7.408;2023-05-07T10:21:08;6.67;;;5.60;;
4355;SDS011;64374;51.482;7.408;2023-05-07T10:23:43;6.30;;;4.10;;
4355;SDS011;64374;51.482;7.408;2023-05-07T10:26:15;4.30;;;3.90;;
4355;SDS011;64374;51.482;7.408;2023-05-07T10:28:50;5.60;;;4.43;;
4355;SDS011;64374;51.482;7.408;2023-05-07T10:31:52;5.50;;;4.90;;
4355;SDS011;64374;51.482;7.408;2023-05-07T10:34:29;4.43;;;4.03;;
4355;SDS011;64374;51.482;7.408;2023-05-07T10:37:04;8.60;;;6.17;;
4355;SDS011;64374;51.482;7.408;2023-05-07T10:39:33;4.30;;;3.90;;
4355;SDS011;64374;51.482;7.408;2023-05-07T10:42:13;5.20;;;4.40;;
4355;SDS011;64374;51.482;7.408;2023-05-07T10:44:47;4.13;;;3.73;;
4355;SDS011;64374;51.482;7.408;2023-05-07T10:47:26;4.03;;;3.53;;
4355;SDS011;64374;51.482;7.408;2023-05-07T10:56:25;3.93;;;3.30;;
4355;SDS011;64374;51.482;7.408;2023-05-07T11:02:16;3.17;;;2.97;;
4355;SDS011;64374;51.482;7.408;2023-05-07T11:07:54;5.27;;;3.97;;
4355;SDS011;64374;51.482;7.408;2023-05-07T11:10:49;4.90;;;3.63;;
4355;SDS011;64374;51.482;7.408;2023-05-07T11:13:42;4.23;;;3.83;;
4355;SDS011;64374;51.482;7.408;2023-05-07T11:16:23;4.83;;;4.30;;
4355;SDS011;64374;51.482;7.408;2023-05-07T11:19:24;6.40;;;4.53;;
4355;SDS011;64374;51.482;7.408;2023-05-07T11:22:36;6.57;;;5.70;;
4355;SDS011;64374;51.482;7.408;2023-05-07T11:25:28;6.70;;;5.90;;
4355;SDS011;64374;51.482;7.408;2023-05-07T11:28:05;11.23;;;5.90;;
4355;SDS011;64374;51.482;7.408;2023-05-07T11:30:42;7.30;;;5.30;;
4355;SDS011;64374;51.482;7.408;2023-05-07T11:33:16;6.40;;;5.80;;
4355;SDS011;64374;51.482;7.408;2023-05-07T11:35:47;9.07;;;7.17;;
4355;SDS011;64374;51.482;7.408;2023-05-07T11:38:18;8.47;;;6.83;;
4355;SDS011;64374;51.482;7.408;2023-05-07T11:40:50;9.00;;;6.20;;
4355;SDS011;64374;51.482;7.408;2023-05-07T11:43:19;5.50;;;5.00;;
4355;SDS011;64374;51.482;7.408;2023-05-07T11:45:47;7.33;;;5.43;;
4355;SDS011;64374;51.482;7.408;2023-05-07T11:48:17;8.73;;;6.40;;
4355;SDS011;64374;51.482;7.408;2023-05-07T11:50:52;7.10;;;6.00;;
4355;SDS011;64374;51.482;7.408;2023-05-07T11:53:25;8.70;;;7.40;;
4355;SDS011;64374;51.482;7.408;2023-05-07T11:55:54;8.47;;;6.53;;
4355;SDS011;64374;51.482;7.408;2023-05-07T11:58:23;7.40;;;6.57;;
4355;SDS011;64374;51.482;7.408;2023-05-07T12:00:53;7.63;;;6.80;;
4355;SDS011;64374;51.482;7.408;2023-05-07T12:03:23;7.53;;;6.67;;
4355;SDS011;64374;51.482;7.408;2023-05-07T12:05:56;6.27;;;5.63;;
4355;SDS011;64374;51.482;7.408;2023-05-07T12:08:26;6.37;;;5.63;;
4355;SDS011;64374;51.482;7.408;2023-05-07T12:10:54;9.63;;;6.10;;
4355;SDS011;64374;51.482;7.408;2023-05-07T12:13:24;6.10;;;5.10;;
4355;SDS011;64374;51.482;7.408;2023-05-07T12:15:53;6.30;;;4.00;;
4355;SDS011;64374;51.482;7.408;2023-05-07T12:18:22;6.63;;;4.00;;
4355;SDS011;64374;51.482;7.408;2023-05-07T12:20:51;4.70;;;4.30;;
4355;SDS011;64374;51.482;7.408;2023-05-07T12:23:20;8.70;;;5.23;;
4355;SDS011;64374;51.482;7.408;2023-05-07T12:25:51;7.37;;;4.53;;
4355;SDS011;64374;51.482;7.408;2023-05-07T12:28:20;6.60;;;5.30;;
4355;SDS011;64374;51.482;7.408;2023-05-07T12:30:48;5.30;;;4.50;;
4355;SDS011;64374;51.482;7.408;2023-05-07T12:33:23;8.13;;;5.43;;
4355;SDS011;64374;51.482;7.408;2023-05-07T12:35:53;6.77;;;5.73;;
4355;SDS011;64374;51.482;7.408;2023-05-07T12:38:22;8.20;;;5.80;;
4355;SDS011;64374;51.482;7.408;2023-05-07T12:40:54;9.70;;;5.73;;
4355;SDS011;64374;51.482;7.408;2023-05-07T12:43:24;7.50;;;6.50;;
4355;SDS011;64374;51.482;7.408;2023-05-07T12:45:56;7.83;;;6.20;;
4355;SDS011;64374;51.482;7.408;2023-05-07T12:48:27;8.33;;;6.70;;
4355;SDS011;64374;51.482;7.408;2023-05-07T12:50:57;7.03;;;6.33;;
4355;SDS011;64374;51.482;7.408;2023-05-07T12:53:27;8.03;;;5.77;;
4355;SDS011;64374;51.482;7.408;2023-05-07T12:55:58;6.20;;;5.60;;
4355;SDS011;64374;51.482;7.408;2023-05-07T12:58:27;5.40;;;4.80;;
4355;SDS011;64374;51.482;7.408;2023-05-07T13:00:57;4.53;;;4.13;;
4355;SDS011;64374;51.482;7.408;2023-05-07T13:03:28;5.40;;;4.87;;
4355;SDS011;64374;51.482;7.408;2023-05-07T13:05:58;4.77;;;4.37;;
4355;SDS011;64374;51.482;7.408;2023-05-07T13:08:31;6.60;;;5.00;;
4355;SDS011;64374;51.482;7.408;2023-05-07T13:11:02;10.00;;;4.60;;
4355;SDS011;64374;51.482;7.408;2023-05-07T13:13:31;6.43;;;4.83;;
4355;SDS011;64374;51.482;7.408;2023-05-07T13:16:01;5.87;;;4.27;;
4355;SDS011;64374;51.482;7.408;2023-05-07T13:18:30;7.43;;;4.60;;
4355;SDS011;64374;51.482;7.408;2023-05-07T13:21:00;6.80;;;5.60;;
4355;SDS011;64374;51.482;7.408;2023-05-07T13:23:29;5.37;;;4.87;;
4355;SDS011;64374;51.482;7.408;2023-05-07T13:25:57;5.17;;;4.43;;
4355;SDS011;64374;51.482;7.408;2023-05-07T13:28:33;5.43;;;4.93;;
4355;SDS011;64374;51.482;7.408;2023-05-07T13:31:02;5.30;;;4.80;;
4355;SDS011;64374;51.482;7.408;2023-05-07T13:33:30;4.87;;;4.47;;
4355;SDS011;64374;51.482;7.408;2023-05-07T13:35:58;6.23;;;5.30;;
4355;SDS011;64374;51.482;7.408;2023-05-07T13:38:27;5.93;;;4.43;;
4355;SDS011;64374;51.482;7.408;2023-05-07T13:40:55;7.50;;;5.40;;
4355;SDS011;64374;51.482;7.408;2023-05-07T13:43:24;8.50;;;4.50;;
4355;SDS011;64374;51.482;7.408;2023-05-07T13:45:53;7.80;;;5.17;;
4355;SDS011;64374;51.482;7.408;2023-05-07T13:48:22;4.90;;;4.50;;
4355;SDS011;64374;51.482;7.408;2023-05-07T13:50:50;4.13;;;3.83;;
4355;SDS011;64374;51.482;7.408;2023-05-07T13:53:18;6.57;;;4.80;;
4355;SDS011;64374;51.482;7.408;2023-05-07T13:55:46;6.00;;;4.77;;
4355;SDS011;64374;51.482;7.408;2023-05-07T13:58:14;13.33;;;4.40;;
4355;SDS011;64374;51.482;7.408;2023-05-07T14:00:45;5.57;;;5.07;;
4355;SDS011;64374;51.482;7.408;2023-05-07T14:03:15;6.43;;;5.17;;
4355;SDS011;64374;51.482;7.408;2023-05-07T14:05:44;6.10;;;5.10;;
4355;SDS011;64374;51.482;7.408;2023-05-07T14:08:15;9.43;;;4.80;;
4355;SDS011;64374;51.482;7.408;2023-05-07T14:10:46;6.20;;;5.03;;
4355;SDS011;64374;51.482;7.408;2023-05-07T14:13:14;9.87;;;5.73;;
4355;SDS011;64374;51.482;7.408;2023-05-07T14:15:43;5.20;;;4.70;;
4355;SDS011;64374;51.482;7.408;2023-05-07T14:18:15;8.17;;;5.50;;
4355;SDS011;64374;51.482;7.408;2023-05-07T14:20:43;6.93;;;6.30;;
4355;SDS011;64374;51.482;7.408;2023-05-07T14:23:12;6.90;;;6.20;;
4355;SDS011;64374;51.482;7.408;2023-05-07T14:25:41;8.13;;;7.10;;
4355;SDS011;64374;51.482;7.408;2023-05-07T14:28:10;6.30;;;5.70;;
4355;SDS011;64374;51.482;7.408;2023-05-07T14:30:39;7.00;;;6.30;;
4355;SDS011;64374;51.482;7.408;2023-05-07T14:33:07;7.70;;;5.77;;
4355;SDS011;64374;51.482;7.408;2023-05-07T14:35:37;8.77;;;6.90;;
4355;SDS011;64374;51.482;7.408;2023-05-07T14:38:05;8.43;;;7.60;;
4355;SDS011;64374;51.482;7.408;2023-05-07T14:40:33;7.33;;;6.20;;
4355;SDS011;64374;51.482;7.408;2023-05-07T14:43:01;9.40;;;7.33;;
4355;SDS011;64374;51.482;7.408;2023-05-07T14:45:30;8.70;;;7.50;;
4355;SDS011;64374;51.482;7.408;2023-05-07T14:47:58;7.80;;;6.87;;
4355;SDS011;64374;51.482;7.408;2023-05-07T14:50:26;8.43;;;7.63;;
4355;SDS011;64374;51.482;7.408;2023-05-07T14:52:55;8.00;;;7.10;;
4355;SDS011;64374;51.482;7.408;2023-05-07T14:55:23;9.33;;;6.70;;
4355;SDS011;64374;51.482;7.408;2023-05-07T14:57:51;10.87;;;6.50;;
4355;SDS011;64374;51.482;7.408;2023-05-07T15:00:22;7.43;;;6.77;;
4355;SDS011;64374;51.482;7.408;2023-05-07T15:02:50;10.40;;;6.23;;
4355;SDS011;64374;51.482;7.408;2023-05-07T15:05:20;8.23;;;6.63;;
4355;SDS011;64374;51.482;7.408;2023-05-07T15:07:48;5.93;;;5.27;;
4355;SDS011;64374;51.482;7.408;2023-05-07T15:10:19;8.47;;;6.03;;
4355;SDS011;64374;51.482;7.408;2023-05-07T15:12:48;7.97;;;6.00;;
4355;SDS011;64374;51.482;7.408;2023-05-07T15:15:16;6.97;;;5.77;;
4355;SDS011;64374;51.482;7.408;2023-05-07T15:17:47;6.03;;;4.73;;
4355;SDS011;64374;51.482;7.408;2023-05-07T15:20:17;11.57;;;4.37;;
4355;SDS011;64374;51.482;7.408;2023-05-07T15:22:46;4.33;;;3.93;;
4355;SDS011;64374;51.482;7.408;2023-05-07T15:25:14;9.00;;;5.20;;
4355;SDS011;64374;51.482;7.408;2023-05-07T15:27:45;4.77;;;4.17;;
4355;SDS011;64374;51.482;7.408;2023-05-07T15:30:13;6.00;;;3.60;;
4355;SDS011;64374;51.482;7.408;2023-05-07T15:32:42;4.40;;;4.00;;
4355;SDS011;64374;51.482;7.408;2023-05-07T15:35:10;4.70;;;4.10;;
4355;SDS011;64374;51.482;7.408;2023-05-07T15:37:39;3.57;;;3.23;;